Skip Navigation Links Skip Navigation Links

Current Weather

Royal Weather Centre, Southampton, United Kingdom

For information only: do not use for flight planning or navigation.
Latest weather
Observation time Tuesday, September 28, 2021 11:20 AM BST
Local time Tuesday, September 28, 2021 11:57 AM BST
Flight conditions Marginal Visual Meteorological Conditions
Winds
Wind direction South (190°)
Winds variable from 140° to 240°
Wind speed 10 mph
Visibility 4.3 mi.
Present weather VCSH
Sky condition
Ceiling unlimited
Cloud layer scattered clouds 2,700 ft.
Temperature 63°F
Dewpoint 55°F
Altimeter 30.00 in.Hg
Derived measurements
Relative humidity 77%
Density altitude 351 ft.
METAR EGHI 281020Z 19009KT 140V240 7000 VCSH SCT027 17/13 Q1016

Settings

Location code

InnerDrive.Weather 4.0.6770.0 Release CLR 4.0.30319.42000
Copyright ©2018 Inner Drive Technology. All rights reserved. Portions Copyright ©1986-2018 David Braverman.

Find weather

Site navigation


Skip Navigation Links

Place info

Page info

PayPal - The safer, easier way to pay online!

Return home.

Copyright ©2021 Inner Drive Technology. Purveyors of fine, hand-crafted computer software. Page printed 2021-09-28T10:57:01 UTC.